createdAt,value
2022-11-29T00:01:34.671Z,8.70
2022-11-29T00:04:05.311Z,8.20
2022-11-29T00:06:35.204Z,8.10
2022-11-29T00:09:06.291Z,7.70
2022-11-29T00:11:54.185Z,8.10
2022-11-29T00:14:23.705Z,7.50
2022-11-29T00:16:53.345Z,7.20
2022-11-29T00:19:23.376Z,6.87
2022-11-29T00:21:51.672Z,6.67
2022-11-29T00:24:20.381Z,7.73
2022-11-29T00:26:48.727Z,6.70
2022-11-29T00:29:17.224Z,6.40
2022-11-29T00:31:46.030Z,7.47
2022-11-29T00:34:14.421Z,6.80
2022-11-29T00:36:44.106Z,6.50
2022-11-29T00:39:12.988Z,7.00
2022-11-29T00:41:41.449Z,6.70
2022-11-29T00:44:13.937Z,7.20
2022-11-29T00:46:45.154Z,6.97
2022-11-29T00:49:13.575Z,6.97
2022-11-29T00:51:43.193Z,7.63
2022-11-29T00:54:11.362Z,6.80
2022-11-29T00:56:39.633Z,6.30
2022-11-29T00:59:07.918Z,7.70
2022-11-29T01:01:36.245Z,7.53
2022-11-29T01:04:05.115Z,6.03
2022-11-29T01:06:33.687Z,7.50
2022-11-29T01:09:03.227Z,7.07
2022-11-29T01:11:31.483Z,6.53
2022-11-29T01:14:02.535Z,6.90
2022-11-29T01:16:32.857Z,6.40
2022-11-29T01:19:01.496Z,6.90
2022-11-29T01:21:29.998Z,7.40
2022-11-29T01:23:58.225Z,6.67
2022-11-29T01:26:30.296Z,7.27
2022-11-29T01:28:59.681Z,8.47
2022-11-29T01:31:29.693Z,7.80
2022-11-29T01:33:59.529Z,6.43
2022-11-29T01:36:28.492Z,6.93
2022-11-29T01:38:57.051Z,6.77
2022-11-29T01:41:28.426Z,6.53
2022-11-29T01:44:00.675Z,8.57
2022-11-29T01:46:30.312Z,6.40
2022-11-29T01:49:02.354Z,9.00
2022-11-29T01:51:31.689Z,7.80
2022-11-29T01:54:00.208Z,8.07
2022-11-29T01:56:33.119Z,8.13
2022-11-29T01:59:02.496Z,8.60
2022-11-29T02:01:30.739Z,9.10
2022-11-29T02:04:00.081Z,7.77
2022-11-29T02:06:29.290Z,8.40
2022-11-29T02:08:57.722Z,8.00
2022-11-29T02:11:53.016Z,8.37
2022-11-29T02:14:35.379Z,8.13
2022-11-29T02:17:11.752Z,7.87
2022-11-29T02:20:06.733Z,8.50
2022-11-29T02:22:43.537Z,6.83
2022-11-29T02:25:25.427Z,6.80
2022-11-29T02:28:24.387Z,8.63
2022-11-29T02:31:07.043Z,8.97
2022-11-29T02:34:07.075Z,7.70
2022-11-29T02:36:48.577Z,8.80
2022-11-29T02:39:43.969Z,9.23
2022-11-29T02:42:55.989Z,9.17
2022-11-29T02:45:49.846Z,9.17
2022-11-29T02:48:42.338Z,8.97
2022-11-29T02:51:16.790Z,9.60
2022-11-29T02:53:52.239Z,8.57
2022-11-29T02:56:28.547Z,8.40
2022-11-29T02:59:03.209Z,8.00
2022-11-29T03:01:35.702Z,9.10
2022-11-29T03:04:13.138Z,9.17
2022-11-29T03:06:51.668Z,8.23
2022-11-29T03:09:33.254Z,8.70
2022-11-29T03:12:12.257Z,8.73
2022-11-29T03:14:58.551Z,9.20
2022-11-29T03:17:37.891Z,8.03
2022-11-29T03:20:23.072Z,8.47
2022-11-29T03:23:13.905Z,9.73
2022-11-29T03:25:47.018Z,9.00
2022-11-29T03:28:18.546Z,9.90
2022-11-29T03:30:52.868Z,10.30
2022-11-29T03:33:26.606Z,10.67
2022-11-29T03:36:01.585Z,11.20
2022-11-29T03:38:38.365Z,10.30
2022-11-29T03:41:17.429Z,8.17
2022-11-29T03:43:52.224Z,9.37
2022-11-29T03:46:28.696Z,9.90
2022-11-29T03:49:01.473Z,14.73
2022-11-29T03:51:39.711Z,13.40
2022-11-29T03:54:13.353Z,14.40
2022-11-29T03:56:42.381Z,13.00
2022-11-29T03:59:26.062Z,13.40
2022-11-29T04:02:14.011Z,14.20
2022-11-29T04:05:14.473Z,13.40
2022-11-29T04:08:25.046Z,14.50
2022-11-29T04:11:23.921Z,15.37
2022-11-29T04:14:29.362Z,13.90
2022-11-29T04:17:26.500Z,14.53
2022-11-29T04:20:46.672Z,12.43
2022-11-29T04:23:46.659Z,14.10
2022-11-29T04:26:47.749Z,14.77
2022-11-29T04:29:40.306Z,15.27
2022-11-29T04:32:24.090Z,15.23
2022-11-29T04:35:30.426Z,17.50
2022-11-29T04:38:28.379Z,18.00
2022-11-29T04:41:36.132Z,18.73
2022-11-29T04:44:28.908Z,19.17
2022-11-29T04:47:07.658Z,20.60
2022-11-29T04:49:51.383Z,21.30
2022-11-29T04:52:37.008Z,22.43
2022-11-29T04:55:24.975Z,24.50
2022-11-29T04:58:14.551Z,22.87
2022-11-29T05:00:52.977Z,25.23
2022-11-29T05:03:30.872Z,25.90
2022-11-29T05:06:08.176Z,28.63
2022-11-29T05:08:50.010Z,23.80
2022-11-29T05:11:27.981Z,25.50
2022-11-29T05:14:07.025Z,26.00
2022-11-29T05:16:47.369Z,23.80
2022-11-29T05:19:30.618Z,22.57
2022-11-29T05:22:13.960Z,23.33
2022-11-29T05:24:53.701Z,23.40
2022-11-29T05:27:29.440Z,21.53
2022-11-29T05:30:06.524Z,24.80
2022-11-29T05:32:39.701Z,23.13
2022-11-29T05:35:33.839Z,24.40
2022-11-29T05:38:15.266Z,23.57
2022-11-29T05:40:53.995Z,23.43
2022-11-29T05:43:42.697Z,25.63
2022-11-29T05:46:22.198Z,25.10
2022-11-29T05:48:58.643Z,22.97
2022-11-29T05:51:40.031Z,24.67
2022-11-29T05:54:19.233Z,25.27
2022-11-29T05:56:58.205Z,23.87
2022-11-29T05:59:29.496Z,25.73
2022-11-29T06:02:11.055Z,26.70
2022-11-29T06:04:57.168Z,24.77
2022-11-29T06:07:31.541Z,24.73
2022-11-29T06:10:04.276Z,26.57
2022-11-29T06:12:35.975Z,23.90
2022-11-29T06:15:33.480Z,25.40
2022-11-29T06:18:23.820Z,23.77
2022-11-29T06:21:10.925Z,24.07
2022-11-29T06:23:57.427Z,27.43
2022-11-29T06:26:52.319Z,24.37
2022-11-29T06:29:30.700Z,24.40
2022-11-29T06:32:14.341Z,26.37
2022-11-29T06:34:49.905Z,27.43
2022-11-29T06:37:24.370Z,31.10
2022-11-29T06:39:53.249Z,31.80
2022-11-29T06:42:21.446Z,31.90
2022-11-29T06:44:50.098Z,31.10
2022-11-29T06:47:28.231Z,33.67
2022-11-29T06:50:04.409Z,35.03
2022-11-29T06:52:41.975Z,32.10
2022-11-29T06:55:18.831Z,35.47
2022-11-29T06:58:10.381Z,34.43
2022-11-29T07:00:44.608Z,36.20
2022-11-29T07:03:35.628Z,35.17
2022-11-29T07:06:12.103Z,34.60
2022-11-29T07:08:41.545Z,35.53
2022-11-29T07:11:12.898Z,34.67
2022-11-29T07:13:41.707Z,36.20
2022-11-29T07:16:18.585Z,37.17
2022-11-29T07:18:53.960Z,32.03
2022-11-29T07:21:40.349Z,35.90
2022-11-29T07:24:21.090Z,31.97
2022-11-29T07:27:00.844Z,32.13
2022-11-29T07:29:38.138Z,32.00
2022-11-29T07:32:16.023Z,33.90
2022-11-29T07:34:51.466Z,35.40
2022-11-29T07:37:29.472Z,35.93
2022-11-29T07:40:03.931Z,34.27
2022-11-29T07:42:38.171Z,32.27
2022-11-29T07:45:14.729Z,30.80
2022-11-29T07:47:42.914Z,31.77
2022-11-29T07:50:12.484Z,35.70
2022-11-29T07:52:42.177Z,34.23
2022-11-29T07:55:18.510Z,33.53
2022-11-29T07:57:47.224Z,33.40
2022-11-29T08:00:16.730Z,33.73
2022-11-29T08:02:45.011Z,34.50
2022-11-29T08:05:14.090Z,34.10
2022-11-29T08:07:44.991Z,33.43
2022-11-29T08:10:16.537Z,35.87
2022-11-29T08:12:46.423Z,35.57
2022-11-29T08:15:14.897Z,34.33
2022-11-29T08:17:43.506Z,33.87
2022-11-29T08:20:14.432Z,32.90
2022-11-29T08:22:44.296Z,33.30
2022-11-29T08:25:13.128Z,32.07
2022-11-29T08:27:41.407Z,33.37
2022-11-29T08:30:10.496Z,30.90
2022-11-29T08:32:38.719Z,32.00
2022-11-29T08:35:07.384Z,31.67
2022-11-29T08:37:35.580Z,29.83
2022-11-29T08:40:05.606Z,32.37
2022-11-29T08:42:33.784Z,28.00
2022-11-29T08:45:01.966Z,34.53
2022-11-29T08:47:40.211Z,31.87
2022-11-29T08:50:12.276Z,30.17
2022-11-29T08:53:00.614Z,30.37
2022-11-29T08:55:33.920Z,29.10
2022-11-29T08:58:04.939Z,28.50
2022-11-29T09:00:33.693Z,29.03
2022-11-29T09:03:20.664Z,29.43
2022-11-29T09:05:48.923Z,29.63
2022-11-29T09:08:17.125Z,29.53
2022-11-29T09:10:47.388Z,28.53
2022-11-29T09:13:15.693Z,29.67
2022-11-29T09:15:43.926Z,28.77
2022-11-29T09:18:12.613Z,28.30
2022-11-29T09:20:44.774Z,29.57
2022-11-29T09:23:13.732Z,27.87
2022-11-29T09:25:41.898Z,30.43
2022-11-29T09:28:12.563Z,30.83
2022-11-29T09:30:41.107Z,30.57
2022-11-29T09:33:09.479Z,27.63
2022-11-29T09:35:37.704Z,27.70
2022-11-29T09:38:06.197Z,27.63
2022-11-29T09:40:39.878Z,30.77
2022-11-29T09:43:20.989Z,29.17
2022-11-29T09:45:56.883Z,30.60
2022-11-29T09:48:58.402Z,25.83
2022-11-29T09:51:32.041Z,29.10
2022-11-29T09:54:15.676Z,26.50
2022-11-29T09:56:48.105Z,26.57
2022-11-29T09:59:22.708Z,27.80
2022-11-29T10:01:56.063Z,28.53
2022-11-29T10:04:27.105Z,26.73
2022-11-29T10:07:01.763Z,24.80
2022-11-29T10:09:34.354Z,26.70
2022-11-29T10:12:12.736Z,26.83
2022-11-29T10:14:47.164Z,24.77
2022-11-29T10:17:30.934Z,26.53
2022-11-29T10:20:03.541Z,26.57
2022-11-29T10:22:40.830Z,26.23
2022-11-29T10:25:16.389Z,26.67
2022-11-29T10:27:44.643Z,27.87
2022-11-29T10:30:18.075Z,26.90
2022-11-29T10:32:49.566Z,25.87
2022-11-29T10:35:20.857Z,25.27
2022-11-29T10:38:22.571Z,26.00
2022-11-29T10:40:47.480Z,25.90
2022-11-29T10:43:15.831Z,26.70
2022-11-29T10:45:50.528Z,24.33
2022-11-29T10:48:21.207Z,25.07
2022-11-29T10:50:51.984Z,24.30
2022-11-29T10:53:23.805Z,23.40
2022-11-29T10:55:58.286Z,22.90
2022-11-29T10:58:29.021Z,23.80
2022-11-29T11:01:00.923Z,21.70
2022-11-29T11:03:38.536Z,24.47
2022-11-29T11:06:12.894Z,22.20
2022-11-29T11:08:44.546Z,18.10
2022-11-29T11:11:14.047Z,21.27
2022-11-29T11:13:42.638Z,22.03
2022-11-29T11:16:20.344Z,21.60
2022-11-29T11:18:50.487Z,19.60
2022-11-29T11:21:21.745Z,20.07
2022-11-29T11:23:55.996Z,21.13
2022-11-29T11:26:25.451Z,20.03
2022-11-29T11:28:59.594Z,19.53
2022-11-29T11:31:37.920Z,19.90
2022-11-29T11:34:26.423Z,18.50
2022-11-29T11:36:55.687Z,19.30
2022-11-29T11:39:24.910Z,19.03
2022-11-29T11:42:11.236Z,19.00
2022-11-29T11:44:49.140Z,20.37
2022-11-29T11:47:21.186Z,17.80
2022-11-29T11:49:51.500Z,18.30
2022-11-29T11:52:23.573Z,17.40
2022-11-29T11:54:54.563Z,17.43
2022-11-29T11:57:24.812Z,23.67
2022-11-29T11:59:54.864Z,25.27
2022-11-29T12:02:29.285Z,18.00
2022-11-29T12:05:01.218Z,16.67
2022-11-29T12:08:06.362Z,17.73
2022-11-29T12:10:25.957Z,18.30
2022-11-29T12:12:56.804Z,18.77
2022-11-29T12:15:30.609Z,19.10
2022-11-29T12:18:05.161Z,17.83
2022-11-29T12:20:40.558Z,17.93
2022-11-29T12:23:24.448Z,20.50
2022-11-29T12:25:57.468Z,21.60
2022-11-29T12:28:31.251Z,19.23
2022-11-29T12:31:13.097Z,23.10
2022-11-29T12:33:49.827Z,20.50
2022-11-29T12:36:34.607Z,20.53
2022-11-29T12:39:25.395Z,18.57
2022-11-29T12:41:58.092Z,18.63
2022-11-29T12:44:40.984Z,18.13
2022-11-29T12:47:36.490Z,20.20
2022-11-29T12:50:23.228Z,19.90
2022-11-29T12:53:04.971Z,20.60
2022-11-29T12:55:41.047Z,21.20
2022-11-29T12:58:19.475Z,21.00
2022-11-29T13:00:55.676Z,21.07
2022-11-29T13:03:30.500Z,21.00
2022-11-29T13:06:10.687Z,21.13
2022-11-29T13:09:31.169Z,22.90
2022-11-29T13:12:06.686Z,22.40
2022-11-29T13:14:43.461Z,23.90
2022-11-29T13:17:24.948Z,25.60
2022-11-29T13:19:57.347Z,24.83
2022-11-29T13:22:31.792Z,24.33
2022-11-29T13:25:04.219Z,27.00
2022-11-29T13:27:36.169Z,26.40
2022-11-29T13:30:06.880Z,26.57
2022-11-29T13:32:37.455Z,24.93
2022-11-29T13:35:17.166Z,27.17
2022-11-29T13:37:55.304Z,30.90
2022-11-29T13:40:36.720Z,25.77
2022-11-29T13:43:12.920Z,25.53
2022-11-29T13:45:48.401Z,24.87
2022-11-29T13:48:37.638Z,25.63
2022-11-29T13:51:26.946Z,25.97
2022-11-29T13:53:58.277Z,25.30
2022-11-29T13:56:36.135Z,28.87
2022-11-29T13:59:09.274Z,31.20
2022-11-29T14:01:46.570Z,28.00
2022-11-29T14:04:37.001Z,32.13
2022-11-29T14:07:11.427Z,29.00
2022-11-29T14:09:59.968Z,28.60
2022-11-29T14:12:41.965Z,27.90
2022-11-29T14:15:24.764Z,25.83
2022-11-29T14:17:56.282Z,30.80
2022-11-29T14:20:59.076Z,28.07
2022-11-29T14:23:36.834Z,27.00
2022-11-29T14:26:29.074Z,23.47
2022-11-29T14:28:58.641Z,27.13
2022-11-29T14:31:55.919Z,27.30
2022-11-29T14:34:55.513Z,30.20
2022-11-29T14:37:46.644Z,28.63
2022-11-29T14:40:29.608Z,28.53
2022-11-29T14:43:01.360Z,28.00
2022-11-29T14:45:32.134Z,26.87
2022-11-29T14:48:01.835Z,28.90
2022-11-29T14:50:33.988Z,25.73
2022-11-29T14:53:03.089Z,28.67
2022-11-29T14:55:35.286Z,25.50
2022-11-29T14:58:21.207Z,25.50
2022-11-29T15:01:09.570Z,25.10
2022-11-29T15:03:46.339Z,27.40
2022-11-29T15:06:25.794Z,27.17
2022-11-29T15:09:00.948Z,27.83
2022-11-29T15:11:37.962Z,28.60
2022-11-29T15:14:15.656Z,28.70
2022-11-29T15:17:12.144Z,27.93
2022-11-29T15:20:15.596Z,25.43
2022-11-29T15:22:52.286Z,26.50
2022-11-29T15:25:22.338Z,25.43
2022-11-29T15:27:52.166Z,26.30
2022-11-29T15:30:29.130Z,26.87
2022-11-29T15:32:57.835Z,26.97
2022-11-29T15:35:26.278Z,26.57
2022-11-29T15:37:55.414Z,23.27
2022-11-29T15:40:26.381Z,29.50
2022-11-29T15:42:59.990Z,25.90
2022-11-29T15:45:33.382Z,33.13
2022-11-29T15:48:18.056Z,26.73
2022-11-29T15:50:52.339Z,26.80
2022-11-29T15:53:25.184Z,25.37
2022-11-29T15:55:57.699Z,23.90
2022-11-29T15:58:31.537Z,26.23
2022-11-29T16:01:02.458Z,25.63
2022-11-29T16:03:33.666Z,26.00
2022-11-29T16:06:08.031Z,26.20
2022-11-29T16:08:41.001Z,25.57
2022-11-29T16:11:16.652Z,25.40
2022-11-29T16:14:03.579Z,24.40
2022-11-29T16:16:35.525Z,25.03
2022-11-29T16:19:19.021Z,24.80
2022-11-29T16:21:47.407Z,25.07
2022-11-29T16:24:21.866Z,24.60
2022-11-29T16:26:51.857Z,24.90
2022-11-29T16:29:24.456Z,23.67
2022-11-29T16:31:55.050Z,24.30
2022-11-29T16:34:27.997Z,23.10
2022-11-29T16:37:03.921Z,24.17
2022-11-29T16:39:33.580Z,24.87
2022-11-29T16:42:15.965Z,24.97
2022-11-29T16:45:08.582Z,23.67
2022-11-29T16:47:52.508Z,22.53
2022-11-29T16:50:22.763Z,25.93
2022-11-29T16:52:56.345Z,24.93
2022-11-29T16:55:25.337Z,22.33
2022-11-29T16:57:53.823Z,24.20
2022-11-29T17:00:31.644Z,27.47
2022-11-29T17:03:01.641Z,24.90
2022-11-29T17:05:31.325Z,25.87
2022-11-29T17:07:59.664Z,26.70
2022-11-29T17:10:28.816Z,24.27
2022-11-29T17:12:58.031Z,25.07
2022-11-29T17:15:26.199Z,25.40
2022-11-29T17:17:54.466Z,31.63
2022-11-29T17:20:24.001Z,24.70
2022-11-29T17:22:52.323Z,25.30
2022-11-29T17:25:20.567Z,24.00
2022-11-29T17:27:48.892Z,23.73
2022-11-29T17:30:17.523Z,23.30
2022-11-29T17:32:45.688Z,21.80
2022-11-29T17:35:15.381Z,22.90
2022-11-29T17:37:44.958Z,19.07
2022-11-29T17:40:15.260Z,22.00
2022-11-29T17:42:43.457Z,19.03
2022-11-29T17:45:12.390Z,19.60
2022-11-29T17:47:40.720Z,18.87
2022-11-29T17:50:09.539Z,18.00
2022-11-29T17:52:39.148Z,18.10
2022-11-29T17:55:09.732Z,18.60
2022-11-29T17:57:38.336Z,16.80
2022-11-29T18:00:10.723Z,15.60
2022-11-29T18:02:38.970Z,18.87
2022-11-29T18:05:08.489Z,18.30
2022-11-29T18:07:57.661Z,17.80
2022-11-29T18:10:28.847Z,17.43
2022-11-29T18:12:57.629Z,17.63
2022-11-29T18:15:25.800Z,17.90
2022-11-29T18:17:54.050Z,18.13
2022-11-29T18:20:22.224Z,20.70
2022-11-29T18:22:50.671Z,17.70
2022-11-29T18:25:38.110Z,17.03
2022-11-29T18:28:08.849Z,16.70
2022-11-29T18:30:37.078Z,16.53
2022-11-29T18:33:05.546Z,16.93
2022-11-29T18:35:33.741Z,16.97
2022-11-29T18:38:17.370Z,18.33
2022-11-29T18:40:46.440Z,17.30
2022-11-29T18:43:17.315Z,15.70
2022-11-29T18:45:45.780Z,17.17
2022-11-29T18:48:14.276Z,17.00
2022-11-29T18:50:42.612Z,15.60
2022-11-29T18:53:10.876Z,15.10
2022-11-29T18:55:39.155Z,16.03
2022-11-29T18:58:08.179Z,15.37
2022-11-29T19:00:37.750Z,15.87
2022-11-29T19:03:05.943Z,13.87
2022-11-29T19:05:34.184Z,15.83
2022-11-29T19:08:02.674Z,15.17
2022-11-29T19:10:30.967Z,15.00
2022-11-29T19:12:59.193Z,13.00
2022-11-29T19:15:27.554Z,16.13
2022-11-29T19:17:57.313Z,22.20
2022-11-29T19:20:25.547Z,20.90
2022-11-29T19:22:58.959Z,19.20
2022-11-29T19:25:28.638Z,19.87
2022-11-29T19:27:56.799Z,19.80
2022-11-29T19:30:25.006Z,18.20
2022-11-29T19:32:53.337Z,16.43
2022-11-29T19:35:22.964Z,17.20
2022-11-29T19:37:51.266Z,15.33
2022-11-29T19:40:19.611Z,17.30
2022-11-29T19:42:48.645Z,18.20
2022-11-29T19:45:19.485Z,19.87
2022-11-29T19:47:51.483Z,20.40
2022-11-29T19:50:19.748Z,19.10
2022-11-29T19:52:49.293Z,20.67
2022-11-29T19:55:19.509Z,20.67
2022-11-29T19:57:47.850Z,23.97
2022-11-29T20:00:17.102Z,19.70
2022-11-29T20:02:45.394Z,18.77
2022-11-29T20:05:14.175Z,19.40
2022-11-29T20:07:42.478Z,20.43
2022-11-29T20:10:12.969Z,22.30
2022-11-29T20:12:41.263Z,24.10
2022-11-29T20:15:10.034Z,23.63
2022-11-29T20:17:38.234Z,21.93
2022-11-29T20:20:07.789Z,21.60
2022-11-29T20:22:35.987Z,21.57
2022-11-29T20:25:04.784Z,21.23
2022-11-29T20:27:34.370Z,18.40
2022-11-29T20:30:02.910Z,20.03
2022-11-29T20:32:31.534Z,19.87
2022-11-29T20:35:02.384Z,21.20
2022-11-29T20:37:51.622Z,25.10
2022-11-29T20:40:22.729Z,22.90
2022-11-29T20:43:10.417Z,19.20
2022-11-29T20:45:38.958Z,20.23
2022-11-29T20:48:16.283Z,20.23
2022-11-29T20:50:48.196Z,20.57
2022-11-29T20:53:28.604Z,20.53
2022-11-29T20:55:56.836Z,19.90
2022-11-29T20:58:27.081Z,21.27
2022-11-29T21:00:55.774Z,19.23
2022-11-29T21:03:24.685Z,18.40
2022-11-29T21:05:54.632Z,19.63
2022-11-29T21:08:27.733Z,20.97
2022-11-29T21:10:56.067Z,21.73
2022-11-29T21:13:26.502Z,21.57
2022-11-29T21:15:57.227Z,17.40
2022-11-29T21:18:27.887Z,18.93
2022-11-29T21:21:04.949Z,19.87
2022-11-29T21:23:41.592Z,18.90
2022-11-29T21:26:16.327Z,19.53
2022-11-29T21:28:57.899Z,21.50
2022-11-29T21:31:26.882Z,19.77
2022-11-29T21:33:55.889Z,19.93
2022-11-29T21:36:24.119Z,17.87
2022-11-29T21:38:55.243Z,19.50
2022-11-29T21:41:24.126Z,20.27
2022-11-29T21:44:10.745Z,19.40
2022-11-29T21:46:39.048Z,20.37
2022-11-29T21:49:07.316Z,19.60
2022-11-29T21:51:35.665Z,18.47
2022-11-29T21:54:04.164Z,19.60
2022-11-29T21:56:32.524Z,19.80
2022-11-29T21:59:02.129Z,17.07
2022-11-29T22:01:30.719Z,19.10
2022-11-29T22:03:59.153Z,18.30
2022-11-29T22:06:29.159Z,19.17
2022-11-29T22:08:57.470Z,19.13
2022-11-29T22:11:35.374Z,19.40
2022-11-29T22:14:17.840Z,16.93
2022-11-29T22:16:48.184Z,20.10
2022-11-29T22:19:17.533Z,19.97
2022-11-29T22:22:08.995Z,19.30
2022-11-29T22:25:28.310Z,20.80
2022-11-29T22:28:11.347Z,17.83
2022-11-29T22:30:41.072Z,20.30
2022-11-29T22:33:13.312Z,21.40
2022-11-29T22:35:44.250Z,20.63
2022-11-29T22:38:12.437Z,22.20
2022-11-29T22:40:40.697Z,21.40
2022-11-29T22:43:08.917Z,21.03
2022-11-29T22:45:37.088Z,21.13
2022-11-29T22:48:06.789Z,20.60
2022-11-29T22:50:34.983Z,20.57
2022-11-29T22:53:03.171Z,22.10
2022-11-29T22:55:31.511Z,20.00
2022-11-29T22:57:59.729Z,20.60
2022-11-29T23:00:27.924Z,21.37
2022-11-29T23:02:57.630Z,23.70
2022-11-29T23:05:31.984Z,22.13
2022-11-29T23:08:00.575Z,21.03
2022-11-29T23:10:28.819Z,20.97
2022-11-29T23:12:57.237Z,19.90
2022-11-29T23:15:26.456Z,22.60
2022-11-29T23:17:54.707Z,21.50
2022-11-29T23:20:22.906Z,18.20
2022-11-29T23:22:52.401Z,19.87
2022-11-29T23:25:20.735Z,21.83
2022-11-29T23:27:50.618Z,22.00
2022-11-29T23:30:20.000Z,23.20
2022-11-29T23:32:48.152Z,20.20
2022-11-29T23:35:16.436Z,19.13
2022-11-29T23:37:45.030Z,22.07
2022-11-29T23:40:15.205Z,22.23
2022-11-29T23:42:46.972Z,19.53
2022-11-29T23:45:15.683Z,18.93
2022-11-29T23:47:43.881Z,20.07
2022-11-29T23:50:12.965Z,21.00
2022-11-29T23:52:41.637Z,21.40
2022-11-29T23:55:12.486Z,20.70
2022-11-29T23:57:42.060Z,23.00
